Time;durP1;ratioP1;P1;durP2;ratioP2;P2;SDS_P1;SDS_P2;PMS_P1;PMS_P2;Temp;Humidity;BMP_temperature;BMP_pressure;BME280_temperature;BME280_humidity;BME280_pressure;Samples;Min_cycle;Max_cycle;Signal;HPM_P1;HPM_P2
2023/02/05 00:02:21;;;;;;;54.40;18.30;;;;;;;;;;4986266;28;20323;-68
2023/02/05 00:04:46;;;;;;;61.87;20.87;;;;;;;;;;4983202;28;20273;-68
2023/02/05 00:07:12;;;;;;;64.45;20.00;;;;;;;;;;4983192;28;20261;-68
2023/02/05 00:09:39;;;;;;;60.47;19.27;;;;;;;;;;4982752;28;20149;-67
2023/02/05 00:12:05;;;;;;;50.95;18.02;;;;;;;;;;4985247;28;20335;-67
2023/02/05 00:14:30;;;;;;;47.47;16.38;;;;;;;;;;4987532;28;20025;-68
2023/02/05 00:16:55;;;;;;;62.33;17.93;;;;;;;;;;4985926;28;20018;-67
2023/02/05 00:19:20;;;;;;;57.33;17.40;;;;;;;;;;4981810;28;20285;-67
2023/02/05 00:21:46;;;;;;;58.50;18.13;;;;;;;;;;4986524;28;20265;-68
2023/02/05 00:24:11;;;;;;;58.63;17.80;;;;;;;;;;4981882;28;20278;-67
2023/02/05 00:26:37;;;;;;;59.40;19.70;;;;;;;;;;4986854;28;20383;-67
2023/02/05 00:29:02;;;;;;;70.72;18.55;;;;;;;;;;4983600;28;20098;-67
2023/02/05 00:31:27;;;;;;;55.35;18.95;;;;;;;;;;4983820;28;20084;-68
2023/02/05 00:33:53;;;;;;;56.88;18.52;;;;;;;;;;4965292;28;20065;-68
2023/02/05 00:36:19;;;;;;;53.85;18.38;;;;;;;;;;4988323;28;20026;-67
2023/02/05 00:38:44;;;;;;;60.25;19.33;;;;;;;;;;4988794;28;20022;-68
2023/02/05 00:41:10;;;;;;;62.88;18.95;;;;;;;;;;4989640;28;20256;-67
2023/02/05 00:43:35;;;;;;;46.63;16.80;;;;;;;;;;4983572;28;20414;-68
2023/02/05 00:46:01;;;;;;;61.63;20.25;;;;;;;;;;4965130;28;20441;-67
2023/02/05 00:48:26;;;;;;;54.22;19.50;;;;;;;;;;4984893;28;20018;-67
2023/02/05 00:50:51;;;;;;;59.63;18.27;;;;;;;;;;4980857;28;20073;-68
2023/02/05 00:53:17;;;;;;;66.55;19.70;;;;;;;;;;4983060;28;20402;-68
2023/02/05 00:55:42;;;;;;;65.95;20.10;;;;;;;;;;4985253;28;20018;-67
2023/02/05 00:58:07;;;;;;;56.53;19.00;;;;;;;;;;4984670;28;20455;-68
2023/02/05 01:00:33;;;;;;;59.80;18.90;;;;;;;;;;4982242;28;20284;-67
2023/02/05 01:02:58;;;;;;;56.90;17.10;;;;;;;;;;4982353;28;20045;-67
2023/02/05 01:05:23;;;;;;;56.50;17.73;;;;;;;;;;4980942;28;20380;-68
2023/02/05 01:07:48;;;;;;;55.83;18.25;;;;;;;;;;4984266;28;20033;-67
2023/02/05 01:10:14;;;;;;;50.70;18.83;;;;;;;;;;4984052;28;20037;-68
2023/02/05 01:12:39;;;;;;;56.72;20.85;;;;;;;;;;4981180;28;20022;-68
2023/02/05 01:15:05;;;;;;;60.40;19.27;;;;;;;;;;4982377;28;20015;-68
2023/02/05 01:17:30;;;;;;;58.60;18.85;;;;;;;;;;4984887;28;20281;-69
2023/02/05 01:19:55;;;;;;;66.20;19.03;;;;;;;;;;4981256;28;21684;-67
2023/02/05 01:22:21;;;;;;;61.25;17.98;;;;;;;;;;4981780;28;20646;-68
2023/02/05 01:24:46;;;;;;;72.35;18.73;;;;;;;;;;4985137;28;20545;-67
2023/02/05 01:27:11;;;;;;;56.10;19.80;;;;;;;;;;4988178;28;20022;-69
2023/02/05 01:29:36;;;;;;;60.05;20.35;;;;;;;;;;4988161;28;20459;-69
2023/02/05 01:32:01;;;;;;;59.83;18.30;;;;;;;;;;4987495;28;20021;-68
2023/02/05 01:34:27;;;;;;;54.40;18.47;;;;;;;;;;4988049;28;20785;-69
2023/02/05 01:36:52;;;;;;;54.03;18.73;;;;;;;;;;4984861;28;20332;-68
2023/02/05 01:39:17;;;;;;;54.33;20.38;;;;;;;;;;4989884;28;20626;-68
2023/02/05 01:41:44;;;;;;;67.00;20.03;;;;;;;;;;4984252;28;20026;-68
2023/02/05 01:44:14;;;;;;;70.35;20.65;;;;;;;;;;4984058;28;20316;-68
2023/02/05 01:46:40;;;;;;;73.47;21.95;;;;;;;;;;4985492;28;20092;-68
2023/02/05 01:49:07;;;;;;;71.95;21.40;;;;;;;;;;4986580;28;20147;-68
2023/02/05 01:51:34;;;;;;;58.10;19.98;;;;;;;;;;4986239;28;20034;-68
2023/02/05 01:53:59;;;;;;;68.95;20.58;;;;;;;;;;4984620;28;20036;-68
2023/02/05 01:56:45;;;;;;;52.05;20.75;;;;;;;;;;4985613;28;20224;-68
2023/02/05 01:59:18;;;;;;;62.03;20.00;;;;;;;;;;4986009;28;20037;-68
2023/02/05 02:01:44;;;;;;;68.82;17.63;;;;;;;;;;4980003;28;20529;-68
2023/02/05 02:04:10;;;;;;;11.68;6.22;;;;;;;;;;4980053;28;20104;-68
2023/02/05 02:06:36;;;;;;;54.58;17.15;;;;;;;;;;4978396;28;20101;-69
2023/02/05 02:09:03;;;;;;;66.63;19.08;;;;;;;;;;4978624;28;20398;-69
2023/02/05 02:11:30;;;;;;;61.80;20.55;;;;;;;;;;4978687;28;20327;-69
2023/02/05 02:13:58;;;;;;;56.97;19.63;;;;;;;;;;4980943;28;20460;-68
2023/02/05 02:16:24;;;;;;;67.30;17.80;;;;;;;;;;4984938;28;20022;-69
2023/02/05 02:18:50;;;;;;;53.80;16.15;;;;;;;;;;4979337;28;20049;-69
2023/02/05 02:21:21;;;;;;;30.92;9.45;;;;;;;;;;4979541;28;20026;-69
2023/02/05 02:24:02;;;;;;;49.05;17.95;;;;;;;;;;4977533;28;20749;-69
2023/02/05 02:26:46;;;;;;;56.03;18.15;;;;;;;;;;4978077;28;20475;-69
2023/02/05 02:29:17;;;;;;;62.67;21.13;;;;;;;;;;4981574;28;20045;-69
2023/02/05 02:31:48;;;;;;;65.65;20.95;;;;;;;;;;4984821;28;20045;-68
2023/02/05 02:34:16;;;;;;;73.70;20.80;;;;;;;;;;4991465;28;20023;-68
2023/02/05 02:36:44;;;;;;;61.72;22.50;;;;;;;;;;4989703;28;20022;-68
2023/02/05 02:39:13;;;;;;;71.05;21.23;;;;;;;;;;4987893;28;20034;-69
2023/02/05 02:41:47;;;;;;;79.38;23.25;;;;;;;;;;4990436;28;20033;-69
2023/02/05 02:44:24;;;;;;;58.80;20.23;;;;;;;;;;4989536;28;20041;-70
2023/02/05 02:46:52;;;;;;;71.32;21.52;;;;;;;;;;4988530;28;20037;-70
2023/02/05 02:49:27;;;;;;;65.72;22.27;;;;;;;;;;4988145;28;20073;-69
2023/02/05 02:51:53;;;;;;;65.82;19.80;;;;;;;;;;4992722;28;20022;-69
2023/02/05 02:54:18;;;;;;;68.55;22.88;;;;;;;;;;4989355;28;20026;-70
2023/02/05 02:56:44;;;;;;;67.80;21.35;;;;;;;;;;4990031;28;20137;-69
2023/02/05 02:59:11;;;;;;;78.93;24.73;;;;;;;;;;4995300;28;20014;-69
2023/02/05 03:01:38;;;;;;;77.13;23.33;;;;;;;;;;4990487;28;20031;-69
2023/02/05 03:04:07;;;;;;;75.55;22.42;;;;;;;;;;4986403;28;20359;-69
2023/02/05 03:06:33;;;;;;;76.70;23.20;;;;;;;;;;4988702;28;20026;-69
2023/02/05 03:09:16;;;;;;;85.35;20.77;;;;;;;;;;4989159;28;20505;-69
2023/02/05 03:11:42;;;;;;;64.53;21.00;;;;;;;;;;4991025;28;20396;-70
2023/02/05 03:14:07;;;;;;;59.90;21.42;;;;;;;;;;4997504;28;20021;-69
2023/02/05 03:16:32;;;;;;;67.23;24.53;;;;;;;;;;4990378;28;20041;-69
2023/02/05 03:18:57;;;;;;;72.00;22.33;;;;;;;;;;4989676;28;21579;-69
2023/02/05 03:21:43;;;;;;;61.22;21.52;;;;;;;;;;4989652;28;20105;-66
2023/02/05 03:24:08;;;;;;;60.13;19.88;;;;;;;;;;4985345;28;20417;-66
2023/02/05 03:26:34;;;;;;;57.00;19.67;;;;;;;;;;4994131;28;20117;-66
2023/02/05 03:29:01;;;;;;;67.57;24.20;;;;;;;;;;4987348;28;20049;-67
2023/02/05 03:31:44;;;;;;;75.53;19.80;;;;;;;;;;4992367;28;20015;-67
2023/02/05 03:34:26;;;;;;;72.95;21.98;;;;;;;;;;4989666;28;20058;-67
2023/02/05 03:36:57;;;;;;;65.20;20.95;;;;;;;;;;4991731;28;20026;-67
2023/02/05 03:39:29;;;;;;;69.28;22.75;;;;;;;;;;4993536;28;20479;-67
2023/02/05 03:42:21;;;;;;;79.60;22.50;;;;;;;;;;4992787;28;20033;-68
2023/02/05 03:45:04;;;;;;;74.82;20.13;;;;;;;;;;4989697;28;20093;-67
2023/02/05 03:47:30;;;;;;;72.32;19.67;;;;;;;;;;4972325;28;20491;-67
2023/02/05 03:50:00;;;;;;;61.33;17.45;;;;;;;;;;4991500;28;20027;-67
2023/02/05 03:52:34;;;;;;;62.40;21.95;;;;;;;;;;4988904;28;20269;-67
2023/02/05 03:55:08;;;;;;;60.30;19.85;;;;;;;;;;4987612;28;20026;-68
2023/02/05 03:57:43;;;;;;;30.80;9.02;;;;;;;;;;4990702;28;20524;-67
2023/02/05 04:00:09;;;;;;;55.92;19.35;;;;;;;;;;4985565;28;20030;-67
2023/02/05 04:02:34;;;;;;;59.65;20.67;;;;;;;;;;4990064;28;20630;-67
2023/02/05 04:04:59;;;;;;;63.70;19.05;;;;;;;;;;4983361;28;20110;-67
2023/02/05 04:07:24;;;;;;;56.23;17.77;;;;;;;;;;4982716;28;20082;-67
2023/02/05 04:09:50;;;;;;;68.22;20.65;;;;;;;;;;4988521;28;20754;-67
2023/02/05 04:12:15;;;;;;;62.10;18.35;;;;;;;;;;4986699;28;20449;-68
2023/02/05 04:14:40;;;;;;;74.00;21.45;;;;;;;;;;4983456;28;20027;-68
2023/02/05 04:17:06;;;;;;;48.08;15.98;;;;;;;;;;4985514;28;20018;-69
2023/02/05 04:19:31;;;;;;;56.85;19.55;;;;;;;;;;4988431;28;20077;-69
2023/02/05 04:21:56;;;;;;;70.43;19.35;;;;;;;;;;4989023;28;20364;-67
2023/02/05 04:24:22;;;;;;;70.68;22.33;;;;;;;;;;4988078;28;20034;-67
2023/02/05 04:26:47;;;;;;;63.75;19.50;;;;;;;;;;4986453;28;20030;-68
2023/02/05 04:29:12;;;;;;;55.33;19.65;;;;;;;;;;4982653;28;20033;-67
2023/02/05 04:31:37;;;;;;;77.15;24.02;;;;;;;;;;4986968;28;20081;-68
2023/02/05 04:34:02;;;;;;;78.67;22.23;;;;;;;;;;4986762;28;20022;-68
2023/02/05 04:36:28;;;;;;;77.30;23.03;;;;;;;;;;4986706;28;20277;-68
2023/02/05 04:38:53;;;;;;;71.38;22.40;;;;;;;;;;4988690;28;20265;-68
2023/02/05 04:41:18;;;;;;;67.87;22.70;;;;;;;;;;4987397;28;20026;-68
2023/02/05 04:43:43;;;;;;;36.78;10.57;;;;;;;;;;4987421;28;20368;-68
2023/02/05 04:46:09;;;;;;;54.80;16.60;;;;;;;;;;4988770;28;20463;-68
2023/02/05 04:48:34;;;;;;;73.25;20.90;;;;;;;;;;4981781;28;20285;-68
2023/02/05 04:51:04;;;;;;;72.43;22.85;;;;;;;;;;4986565;28;20026;-68
2023/02/05 04:53:29;;;;;;;90.43;22.92;;;;;;;;;;4987914;28;20046;-68
2023/02/05 04:56:02;;;;;;;56.67;19.13;;;;;;;;;;4987878;28;20451;-68
2023/02/05 04:58:27;;;;;;;69.20;23.95;;;;;;;;;;4987353;28;20300;-69
2023/02/05 05:00:52;;;;;;;66.77;22.17;;;;;;;;;;4988374;28;20026;-68
2023/02/05 05:03:18;;;;;;;63.47;23.10;;;;;;;;;;4987149;28;20285;-69
2023/02/05 05:05:43;;;;;;;57.87;22.17;;;;;;;;;;4985243;28;20285;-69
2023/02/05 05:08:08;;;;;;;66.23;20.03;;;;;;;;;;4989294;28;20380;-71
2023/02/05 05:10:33;;;;;;;60.40;22.57;;;;;;;;;;4985691;28;20281;-70
2023/02/05 05:12:58;;;;;;;34.08;8.63;;;;;;;;;;4989140;28;20281;-70
2023/02/05 05:15:23;;;;;;;73.88;23.73;;;;;;;;;;4985286;28;20022;-70
2023/02/05 05:17:49;;;;;;;64.05;22.73;;;;;;;;;;4989613;28;20049;-69
2023/02/05 05:20:14;;;;;;;77.13;22.97;;;;;;;;;;4987791;28;20251;-70
2023/02/05 05:22:39;;;;;;;69.38;23.15;;;;;;;;;;4972364;28;20273;-73
2023/02/05 05:25:04;;;;;;;66.95;22.70;;;;;;;;;;4968580;28;20022;-69
2023/02/05 05:27:30;;;;;;;70.50;22.27;;;;;;;;;;4986068;28;20039;-72
2023/02/05 05:29:55;;;;;;;59.47;21.50;;;;;;;;;;4988738;28;20033;-69
2023/02/05 05:32:20;;;;;;;67.38;22.50;;;;;;;;;;4989281;28;20014;-71
2023/02/05 05:34:45;;;;;;;73.88;22.10;;;;;;;;;;4986095;28;20050;-70
2023/02/05 05:37:10;;;;;;;69.87;23.53;;;;;;;;;;4969345;28;20027;-70
2023/02/05 05:45:03;;;;;;;59.28;21.40;;;;;;;;;;4987511;28;20041;-69
2023/02/05 05:47:29;;;;;;;60.55;21.85;;;;;;;;;;4985714;28;20030;-69
2023/02/05 05:49:54;;;;;;;72.97;22.27;;;;;;;;;;4987970;28;20025;-70
2023/02/05 05:52:19;;;;;;;69.03;21.47;;;;;;;;;;4988049;28;20343;-73
2023/02/05 05:54:45;;;;;;;75.20;22.57;;;;;;;;;;4985762;28;20285;-70
2023/02/05 05:57:10;;;;;;;71.35;22.73;;;;;;;;;;4985419;28;20277;-71
2023/02/05 05:59:36;;;;;;;66.70;20.17;;;;;;;;;;4969361;28;20022;-71
2023/02/05 06:02:01;;;;;;;59.00;21.15;;;;;;;;;;4985693;28;20313;-72
2023/02/05 06:04:26;;;;;;;66.25;21.05;;;;;;;;;;4979519;28;20026;-69
2023/02/05 06:06:53;;;;;;;63.47;22.35;;;;;;;;;;4984531;28;20031;-69
2023/02/05 06:09:20;;;;;;;71.65;22.27;;;;;;;;;;4982276;28;20423;-69
2023/02/05 06:11:45;;;;;;;79.53;23.85;;;;;;;;;;4987126;28;20034;-71
2023/02/05 06:14:10;;;;;;;77.65;22.27;;;;;;;;;;4981260;28;20025;-71
2023/02/05 06:16:35;;;;;;;64.13;21.43;;;;;;;;;;4981787;28;20030;-71
2023/02/05 06:19:01;;;;;;;73.07;24.33;;;;;;;;;;4968709;28;20380;-71
2023/02/05 06:21:26;;;;;;;78.17;24.33;;;;;;;;;;4986376;28;20026;-69
2023/02/05 06:23:51;;;;;;;70.10;23.17;;;;;;;;;;4980041;28;20828;-71
2023/02/05 06:26:16;;;;;;;99.10;25.53;;;;;;;;;;4985204;28;20368;-71
2023/02/05 06:28:41;;;;;;;73.63;22.40;;;;;;;;;;4983237;28;20293;-71
2023/02/05 06:31:06;;;;;;;71.63;24.53;;;;;;;;;;4985589;28;20022;-70
2023/02/05 06:33:32;;;;;;;79.73;24.27;;;;;;;;;;4985053;28;20312;-73
2023/02/05 06:35:57;;;;;;;84.60;23.65;;;;;;;;;;4987792;28;20278;-69
2023/02/05 06:38:22;;;;;;;78.50;22.90;;;;;;;;;;4982595;28;20394;-71
2023/02/05 06:40:47;;;;;;;75.93;25.02;;;;;;;;;;4985711;28;20413;-71
2023/02/05 06:43:13;;;;;;;86.88;24.98;;;;;;;;;;4988870;28;20100;-70
2023/02/05 06:45:38;;;;;;;74.72;25.05;;;;;;;;;;4985070;28;20022;-70
2023/02/05 06:48:03;;;;;;;93.95;26.98;;;;;;;;;;4988901;28;20145;-70
2023/02/05 06:50:28;;;;;;;87.68;25.33;;;;;;;;;;4987391;28;20101;-70
2023/02/05 06:52:54;;;;;;;87.75;26.77;;;;;;;;;;4967139;28;20019;-71
2023/02/05 06:55:19;;;;;;;83.05;27.95;;;;;;;;;;4987244;28;20026;-70
2023/02/05 06:57:44;;;;;;;122.45;36.92;;;;;;;;;;4985284;28;20023;-69
2023/02/05 07:00:10;;;;;;;106.33;32.67;;;;;;;;;;4985747;28;20124;-69
2023/02/05 07:02:35;;;;;;;111.65;34.03;;;;;;;;;;4986309;28;20284;-69
2023/02/05 07:05:00;;;;;;;142.63;41.10;;;;;;;;;;4988044;28;20058;-70
2023/02/05 07:07:27;;;;;;;131.32;37.30;;;;;;;;;;4986678;28;20391;-70
2023/02/05 07:09:52;;;;;;;140.00;36.92;;;;;;;;;;4988329;28;20049;-70
2023/02/05 07:12:17;;;;;;;147.43;37.67;;;;;;;;;;4985151;28;20499;-70
2023/02/05 07:14:42;;;;;;;136.20;40.30;;;;;;;;;;4981905;28;20277;-70
2023/02/05 07:17:08;;;;;;;132.07;36.78;;;;;;;;;;4985054;28;20052;-70
2023/02/05 07:19:34;;;;;;;134.38;38.03;;;;;;;;;;4982453;28;20395;-70
2023/02/05 07:21:59;;;;;;;125.65;41.20;;;;;;;;;;4985324;28;20026;-70
2023/02/05 07:24:24;;;;;;;131.38;38.63;;;;;;;;;;4989358;28;20133;-70
2023/02/05 07:26:49;;;;;;;125.40;37.70;;;;;;;;;;4992546;28;20363;-70
2023/02/05 07:29:14;;;;;;;120.63;35.33;;;;;;;;;;4991848;28;20089;-70
2023/02/05 07:31:40;;;;;;;118.50;35.05;;;;;;;;;;4990134;28;20014;-74
2023/02/05 07:34:05;;;;;;;130.20;38.10;;;;;;;;;;4985386;28;20491;-70
2023/02/05 07:36:30;;;;;;;128.00;40.22;;;;;;;;;;4989145;28;20058;-70
2023/02/05 07:38:55;;;;;;;135.93;40.30;;;;;;;;;;4991836;28;20430;-70
2023/02/05 07:41:20;;;;;;;120.43;36.87;;;;;;;;;;4992770;28;20475;-72
2023/02/05 07:43:49;;;;;;;120.40;36.80;;;;;;;;;;4992219;28;20308;-70
2023/02/05 07:46:14;;;;;;;103.30;31.00;;;;;;;;;;4990893;28;20018;-70
2023/02/05 07:48:39;;;;;;;119.47;34.25;;;;;;;;;;4992748;28;20537;-70
2023/02/05 07:51:06;;;;;;;106.78;33.30;;;;;;;;;;4992597;28;20068;-70
2023/02/05 07:53:31;;;;;;;103.22;37.90;;;;;;;;;;4992030;28;20550;-71
2023/02/05 07:56:00;;;;;;;102.05;31.67;;;;;;;;;;4990387;28;20090;-71
2023/02/05 07:58:25;;;;;;;106.90;31.67;;;;;;;;;;4992273;28;20038;-70
2023/02/05 08:00:50;;;;;;;98.85;33.83;;;;;;;;;;4987124;28;20031;-69
2023/02/05 08:03:16;;;;;;;97.63;32.42;;;;;;;;;;4992450;28;20096;-70
2023/02/05 08:05:41;;;;;;;99.73;32.03;;;;;;;;;;4989314;28;20483;-70
2023/02/05 08:08:06;;;;;;;102.70;38.47;;;;;;;;;;4987450;28;20292;-69
2023/02/05 08:10:31;;;;;;;93.03;29.50;;;;;;;;;;4989169;28;20749;-69
2023/02/05 08:12:56;;;;;;;86.82;28.88;;;;;;;;;;4982370;28;20041;-71
2023/02/05 08:15:22;;;;;;;90.07;30.77;;;;;;;;;;4990906;28;20104;-71
2023/02/05 08:17:47;;;;;;;85.65;30.40;;;;;;;;;;4983479;28;20836;-71
2023/02/05 08:20:12;;;;;;;89.22;30.30;;;;;;;;;;4991500;28;20018;-71
2023/02/05 08:22:38;;;;;;;103.65;30.08;;;;;;;;;;4991244;28;20469;-71
2023/02/05 08:25:07;;;;;;;77.47;30.35;;;;;;;;;;4989508;28;20033;-71
2023/02/05 08:27:33;;;;;;;82.90;28.60;;;;;;;;;;4989807;28;20340;-72
2023/02/05 08:29:58;;;;;;;70.95;28.67;;;;;;;;;;4986238;28;20853;-69
2023/02/05 08:32:23;;;;;;;77.13;27.80;;;;;;;;;;4991920;28;20386;-70
2023/02/05 08:34:48;;;;;;;80.72;28.15;;;;;;;;;;4991214;28;20284;-70
2023/02/05 08:37:13;;;;;;;65.00;24.90;;;;;;;;;;4988638;28;20026;-70
2023/02/05 08:39:39;;;;;;;65.70;27.03;;;;;;;;;;4990037;28;20750;-72
2023/02/05 08:42:04;;;;;;;59.70;22.55;;;;;;;;;;4991332;28;20360;-71
2023/02/05 08:44:29;;;;;;;59.80;24.15;;;;;;;;;;4990286;28;20105;-70
2023/02/05 08:46:54;;;;;;;63.37;22.60;;;;;;;;;;4988923;28;20136;-71
2023/02/05 08:49:19;;;;;;;57.20;23.77;;;;;;;;;;4991281;28;20289;-69
2023/02/05 08:51:45;;;;;;;52.88;23.38;;;;;;;;;;4989463;28;20308;-70
2023/02/05 08:54:12;;;;;;;50.42;21.13;;;;;;;;;;4988631;28;20379;-70
2023/02/05 08:56:38;;;;;;;47.83;20.23;;;;;;;;;;4990198;28;20077;-70
2023/02/05 08:59:04;;;;;;;48.13;18.83;;;;;;;;;;4986691;28;20030;-69
2023/02/05 09:01:29;;;;;;;52.22;20.42;;;;;;;;;;4983289;28;20037;-69
2023/02/05 09:03:54;;;;;;;44.47;19.80;;;;;;;;;;4987124;28;20019;-70
2023/02/05 09:06:19;;;;;;;45.80;18.92;;;;;;;;;;4982309;28;20046;-70
2023/02/05 09:08:45;;;;;;;43.33;18.58;;;;;;;;;;4986442;28;20026;-69
2023/02/05 09:11:12;;;;;;;41.75;18.85;;;;;;;;;;4986377;28;20030;-70
2023/02/05 09:13:37;;;;;;;40.42;17.30;;;;;;;;;;4988240;28;20031;-72
2023/02/05 09:16:03;;;;;;;35.58;14.60;;;;;;;;;;4984768;28;20125;-69
2023/02/05 09:18:28;;;;;;;26.80;13.13;;;;;;;;;;4986208;28;20018;-70
2023/02/05 09:20:53;;;;;;;24.03;10.87;;;;;;;;;;4986311;28;20275;-70
2023/02/05 09:23:18;;;;;;;17.95;9.38;;;;;;;;;;4988273;28;20289;-72
2023/02/05 09:25:44;;;;;;;16.05;8.02;;;;;;;;;;4987290;28;20278;-71
2023/02/05 09:28:10;;;;;;;13.17;6.47;;;;;;;;;;4980709;28;20105;-71
2023/02/05 09:30:36;;;;;;;12.40;5.68;;;;;;;;;;4985746;28;20269;-71
2023/02/05 09:33:01;;;;;;;10.65;4.68;;;;;;;;;;4981215;28;20032;-72
2023/02/05 09:35:26;;;;;;;8.77;3.90;;;;;;;;;;4981067;28;20026;-73
2023/02/05 09:37:51;;;;;;;6.90;3.13;;;;;;;;;;4986943;28;20283;-70
2023/02/05 09:40:18;;;;;;;7.20;3.17;;;;;;;;;;4987995;28;20105;-74
2023/02/05 09:42:48;;;;;;;8.13;3.08;;;;;;;;;;4987028;28;20273;-70
2023/02/05 09:45:32;;;;;;;8.90;3.47;;;;;;;;;;4986570;28;20390;-71
2023/02/05 09:48:03;;;;;;;7.22;3.83;;;;;;;;;;4985249;28;20038;-72
2023/02/05 09:50:29;;;;;;;7.32;4.00;;;;;;;;;;4986062;28;20018;-69
2023/02/05 09:53:02;;;;;;;11.68;3.40;;;;;;;;;;4986828;28;20117;-70
2023/02/05 09:55:31;;;;;;;9.18;4.32;;;;;;;;;;4985526;28;20161;-69
2023/02/05 09:58:03;;;;;;;11.48;4.25;;;;;;;;;;4987326;28;20105;-69
2023/02/05 10:00:47;;;;;;;7.88;3.47;;;;;;;;;;4986916;28;20045;-69
2023/02/05 10:03:19;;;;;;;13.75;4.38;;;;;;;;;;4968034;28;20493;-72
2023/02/05 10:06:03;;;;;;;18.25;5.13;;;;;;;;;;4965952;28;20038;-74
2023/02/05 10:08:33;;;;;;;10.07;3.95;;;;;;;;;;4985355;28;20130;-70
2023/02/05 10:11:00;;;;;;;9.68;4.13;;;;;;;;;;4984393;28;20034;-72
2023/02/05 10:13:35;;;;;;;10.32;3.40;;;;;;;;;;4986230;28;20072;-69
2023/02/05 10:16:00;;;;;;;13.48;4.53;;;;;;;;;;4985749;28;20439;-70
2023/02/05 10:18:46;;;;;;;10.77;3.80;;;;;;;;;;4983784;28;20121;-69
2023/02/05 10:21:17;;;;;;;10.80;4.45;;;;;;;;;;4976412;28;20277;-70
2023/02/05 10:23:48;;;;;;;14.73;3.78;;;;;;;;;;4984997;28;20085;-69
2023/02/05 10:26:16;;;;;;;13.52;3.20;;;;;;;;;;4979498;28;20109;-69
2023/02/05 10:29:02;;;;;;;15.70;4.22;;;;;;;;;;4987931;28;20028;-73
2023/02/05 10:31:40;;;;;;;11.52;4.68;;;;;;;;;;4982134;28;20301;-73
2023/02/05 10:34:14;;;;;;;15.90;4.70;;;;;;;;;;4983864;28;20542;-72
2023/02/05 10:36:39;;;;;;;16.73;5.53;;;;;;;;;;4968439;28;20030;-69
2023/02/05 10:39:08;;;;;;;20.42;5.45;;;;;;;;;;4984477;28;20568;-69
2023/02/05 10:41:38;;;;;;;11.73;4.32;;;;;;;;;;4985991;28;20395;-71
2023/02/05 10:44:17;;;;;;;11.65;4.30;;;;;;;;;;4967811;28;20026;-69
2023/02/05 10:46:50;;;;;;;16.13;4.60;;;;;;;;;;4980011;28;20873;-72
2023/02/05 10:49:26;;;;;;;18.73;5.25;;;;;;;;;;4982144;28;20454;-70
2023/02/05 10:51:52;;;;;;;20.40;5.72;;;;;;;;;;4979653;28;20499;-72
2023/02/05 10:54:27;;;;;;;13.88;5.60;;;;;;;;;;4984546;28;20018;-71
2023/02/05 10:56:53;;;;;;;11.38;5.32;;;;;;;;;;4988619;28;20049;-70
2023/02/05 10:59:23;;;;;;;21.48;6.43;;;;;;;;;;4985244;28;20088;-69
2023/02/05 11:01:48;;;;;;;;;;;;;;;;;;4987093;28;20037;-70
2023/02/05 11:04:15;;;;;;;26.33;6.43;;;;;;;;;;4985231;28;19913;-70
2023/02/05 11:06:44;;;;;;;23.15;6.82;;;;;;;;;;4988456;28;20046;-70
2023/02/05 11:09:27;;;;;;;16.48;6.88;;;;;;;;;;4984399;28;20040;-70
2023/02/05 11:11:52;;;;;;;29.65;6.70;;;;;;;;;;4984535;28;20121;-70
2023/02/05 11:14:24;;;;;;;25.63;6.88;;;;;;;;;;4989159;28;20114;-70
2023/02/05 11:16:49;;;;;;;24.60;8.45;;;;;;;;;;4974995;28;20483;-70
2023/02/05 11:19:26;;;;;;;27.55;9.73;;;;;;;;;;4990499;28;20026;-70
2023/02/05 11:21:55;;;;;;;22.40;6.20;;;;;;;;;;4990664;28;20053;-70
2023/02/05 11:24:22;;;;;;;30.35;7.70;;;;;;;;;;5015322;23;20765;-72
2023/02/05 11:26:48;;;;;;;28.13;6.45;;;;;;;;;;4982341;28;20529;-71
2023/02/05 11:29:20;;;;;;;19.70;8.55;;;;;;;;;;4985713;28;20034;-72
2023/02/05 11:31:45;;;;;;;22.80;5.30;;;;;;;;;;4986254;28;20022;-72
2023/02/05 11:34:13;;;;;;;23.25;4.85;;;;;;;;;;4991422;28;20093;-72
2023/02/05 11:36:47;;;;;;;22.50;6.20;;;;;;;;;;4985587;28;20478;-72
2023/02/05 11:39:22;;;;;;;13.32;5.07;;;;;;;;;;4988545;28;20022;-72
2023/02/05 11:41:48;;;;;;;21.00;5.40;;;;;;;;;;4977086;28;20035;-72
2023/02/05 11:44:22;;;;;;;17.13;4.88;;;;;;;;;;4987853;28;20048;-72
2023/02/05 11:46:49;;;;;;;24.88;5.68;;;;;;;;;;4983352;28;20034;-71
2023/02/05 11:49:19;;;;;;;17.42;4.63;;;;;;;;;;4990935;28;20022;-72
2023/02/05 11:51:45;;;;;;;10.30;4.57;;;;;;;;;;4988606;28;20034;-72
2023/02/05 11:54:32;;;;;;;21.20;5.90;;;;;;;;;;4982732;28;20511;-72
2023/02/05 11:57:23;;;;;;;25.67;5.22;;;;;;;;;;4980891;28;20026;-72
2023/02/05 11:59:56;;;;;;;26.90;7.25;;;;;;;;;;4969515;28;20050;-72
2023/02/05 12:02:27;;;;;;;31.52;5.32;;;;;;;;;;4978019;28;20571;-72
2023/02/05 12:05:15;;;;;;;19.23;4.78;;;;;;;;;;4981633;28;20023;-72
2023/02/05 12:07:46;;;;;;;17.58;5.13;;;;;;;;;;4982914;28;20116;-72
2023/02/05 12:10:42;;;;;;;11.98;4.28;;;;;;;;;;4982869;28;20026;-72
2023/02/05 12:13:13;;;;;;;19.58;4.15;;;;;;;;;;4980295;28;20077;-71
2023/02/05 12:15:43;;;;;;;21.23;4.05;;;;;;;;;;4989453;28;20029;-71
2023/02/05 12:18:25;;;;;;;21.63;4.45;;;;;;;;;;4984759;28;20026;-71
2023/02/05 12:21:05;;;;;;;13.60;4.70;;;;;;;;;;4990406;28;20023;-71
2023/02/05 12:23:38;;;;;;;19.98;4.53;;;;;;;;;;4988154;28;20033;-71
2023/02/05 12:26:06;;;;;;;20.23;6.25;;;;;;;;;;4985788;28;20494;-71
2023/02/05 12:28:38;;;;;;;23.98;5.00;;;;;;;;;;4988357;28;20036;-71
2023/02/05 12:31:13;;;;;;;17.23;5.43;;;;;;;;;;4969509;28;20019;-71
2023/02/05 12:33:47;;;;;;;19.10;4.50;;;;;;;;;;4990350;28;20026;-71
2023/02/05 12:36:31;;;;;;;15.27;5.22;;;;;;;;;;4985470;28;20034;-71
2023/02/05 12:39:14;;;;;;;19.98;4.63;;;;;;;;;;4985114;28;20084;-71
2023/02/05 12:42:10;;;;;;;19.67;5.13;;;;;;;;;;4982505;28;20035;-71
2023/02/05 12:44:43;;;;;;;22.73;4.90;;;;;;;;;;4980455;28;20308;-72
2023/02/05 12:47:36;;;;;;;28.83;5.57;;;;;;;;;;4987829;28;20022;-72
2023/02/05 12:50:13;;;;;;;16.55;4.00;;;;;;;;;;4967623;28;20026;-71
2023/02/05 12:53:07;;;;;;;14.50;4.13;;;;;;;;;;4964570;28;20030;-72
2023/02/05 12:55:40;;;;;;;11.65;3.50;;;;;;;;;;4962704;28;20042;-72
2023/02/05 12:58:08;;;;;;;14.60;3.60;;;;;;;;;;4969776;28;20030;-72
2023/02/05 13:00:39;;;;;;;10.93;3.65;;;;;;;;;;4969022;28;20037;-71
2023/02/05 13:03:07;;;;;;;11.60;2.40;;;;;;;;;;4971135;28;20026;-71
2023/02/05 13:05:38;;;;;;;14.50;4.18;;;;;;;;;;4985502;28;20117;-72
2023/02/05 13:08:18;;;;;;;15.20;2.65;;;;;;;;;;4967109;28;20026;-71
2023/02/05 13:10:49;;;;;;;13.95;2.85;;;;;;;;;;4979673;28;20104;-71
2023/02/05 13:13:18;;;;;;;14.50;2.15;;;;;;;;;;4988228;28;20475;-71
2023/02/05 13:15:45;;;;;;;11.40;2.35;;;;;;;;;;4965453;28;20296;-71
2023/02/05 13:18:22;;;;;;;7.00;2.58;;;;;;;;;;4965738;28;20029;-71
2023/02/05 13:28:56;;;;;;;7.90;2.33;;;;;;;;;;4987975;28;20121;-71
2023/02/05 13:31:36;;;;;;;7.05;2.35;;;;;;;;;;4966689;28;20457;-71
2023/02/05 13:34:01;;;;;;;;;;;;;;;;;;4984618;28;20022;-71
2023/02/05 13:36:42;;;;;;;5.03;2.97;;;;;;;;;;4964103;28;20292;-71
2023/02/05 13:39:09;;;;;;;6.80;3.20;;;;;;;;;;4963574;28;20284;-71
2023/02/05 13:41:34;;;;;;;6.78;2.90;;;;;;;;;;4969581;28;20030;-71
2023/02/05 13:44:02;;;;;;;8.57;3.40;;;;;;;;;;4971054;28;20493;-71
2023/02/05 13:46:40;;;;;;;7.43;3.70;;;;;;;;;;4966241;28;20284;-71
2023/02/05 13:49:05;;;;;;;9.07;4.00;;;;;;;;;;4988544;28;20030;-71
2023/02/05 13:51:33;;;;;;;10.40;3.85;;;;;;;;;;4981675;28;20036;-71
2023/02/05 13:54:31;;;;;;;10.70;4.13;;;;;;;;;;4978793;28;20026;-71
2023/02/05 13:57:03;;;;;;;9.57;4.15;;;;;;;;;;4961614;28;20035;-71
2023/02/05 13:59:39;;;;;;;7.07;4.40;;;;;;;;;;4984799;28;20022;-71
2023/02/05 14:02:24;;;;;;;7.38;4.18;;;;;;;;;;4984757;28;20376;-72
2023/02/05 14:04:53;;;;;;;9.13;3.97;;;;;;;;;;4981779;28;20102;-71
2023/02/05 14:07:23;;;;;;;9.15;3.70;;;;;;;;;;4985474;28;20022;-72
2023/02/05 14:09:52;;;;;;;5.05;2.92;;;;;;;;;;4985518;28;20045;-71
2023/02/05 14:12:25;;;;;;;11.82;3.30;;;;;;;;;;4983518;28;20029;-72
2023/02/05 14:15:09;;;;;;;8.45;2.92;;;;;;;;;;4978737;28;20015;-72
2023/02/05 14:17:35;;;;;;;12.05;3.95;;;;;;;;;;4983384;28;20030;-72
2023/02/05 14:20:04;;;;;;;13.75;4.13;;;;;;;;;;4967152;28;20037;-72
2023/02/05 14:22:37;;;;;;;8.38;2.67;;;;;;;;;;4979895;28;20112;-72
2023/02/05 14:25:03;;;;;;;12.57;2.80;;;;;;;;;;4983728;28;20427;-72
2023/02/05 14:27:28;;;;;;;12.10;2.90;;;;;;;;;;4980036;28;20023;-72
2023/02/05 14:29:54;;;;;;;8.90;3.38;;;;;;;;;;4986596;28;20623;-72
2023/02/05 14:32:25;;;;;;;9.63;3.30;;;;;;;;;;4986451;28;20026;-72
2023/02/05 14:34:58;;;;;;;16.98;3.10;;;;;;;;;;4969102;28;20081;-71
2023/02/05 14:37:25;;;;;;;16.35;3.85;;;;;;;;;;4982664;28;20042;-71
2023/02/05 14:39:51;;;;;;;13.57;2.75;;;;;;;;;;4988967;28;20477;-69
2023/02/05 14:42:18;;;;;;;15.82;3.15;;;;;;;;;;4964212;28;20041;-68
2023/02/05 14:44:50;;;;;;;16.30;3.10;;;;;;;;;;4984180;28;20487;-71
2023/02/05 14:47:19;;;;;;;7.93;3.08;;;;;;;;;;4979597;28;20767;-71